Time;durP1;ratioP1;P1;durP2;ratioP2;P2;SDS_P1;SDS_P2;PMS_P1;PMS_P2;Temp;Humidity;BMP_temperature;BMP_pressure;BME280_temperature;BME280_humidity;BME280_pressure;Samples;Min_cycle;Max_cycle;Signal;HPM_P1;HPM_P2
2022/04/02 00:01:19;;;;;;;5.60;4.17;;;3.50;83.40;;;;;;5014234;28;20491;-42
2022/04/02 00:03:46;;;;;;;3.67;3.37;;;3.50;83.10;;;;;;5024016;28;21008;-42
2022/04/02 00:06:13;;;;;;;4.17;3.73;;;3.60;82.90;;;;;;5025009;28;20447;-42
2022/04/02 00:08:40;;;;;;;4.27;3.20;;;3.50;83.00;;;;;;5012418;28;20785;-42
2022/04/02 00:11:07;;;;;;;4.10;3.77;;;3.60;82.90;;;;;;5003304;28;21024;-42
2022/04/02 00:13:34;;;;;;;4.23;3.83;;;3.60;81.80;;;;;;5027492;28;20456;-42
2022/04/02 00:16:02;;;;;;;3.47;3.17;;;3.60;81.60;;;;;;5008524;28;20460;-42
2022/04/02 00:18:29;;;;;;;4.73;3.77;;;3.60;82.20;;;;;;5009193;28;20521;-42
2022/04/02 00:20:58;;;;;;;4.63;4.23;;;3.60;82.30;;;;;;5010079;28;20545;-42
2022/04/02 00:23:39;;;;;;;4.80;4.33;;;3.60;82.40;;;;;;5027350;28;20466;-42
2022/04/02 00:26:11;;;;;;;8.10;4.40;;;3.60;82.10;;;;;;4997962;28;20971;-42
2022/04/02 00:28:40;;;;;;;7.27;4.93;;;3.50;81.10;;;;;;5026022;28;20696;-42
2022/04/02 00:31:08;;;;;;;8.30;5.27;;;3.50;81.90;;;;;;5027288;28;20479;-42
2022/04/02 00:33:36;;;;;;;5.90;4.60;;;3.50;82.40;;;;;;5009922;28;20530;-41
2022/04/02 00:36:04;;;;;;;5.83;5.03;;;3.50;82.00;;;;;;5007565;28;20823;-43
2022/04/02 00:38:31;;;;;;;6.43;3.93;;;3.60;81.90;;;;;;5027533;28;20464;-42
2022/04/02 00:40:58;;;;;;;8.80;4.97;;;3.50;81.50;;;;;;5024397;28;20503;-43
2022/04/02 00:43:33;;;;;;;5.23;4.67;;;3.50;81.50;;;;;;5006401;28;20469;-42
2022/04/02 00:46:11;;;;;;;4.27;3.63;;;3.50;81.20;;;;;;5025315;28;20465;-43
2022/04/02 00:48:39;;;;;;;4.50;4.10;;;3.50;81.10;;;;;;5026629;28;20455;-42
2022/04/02 00:51:08;;;;;;;5.90;4.60;;;3.50;81.00;;;;;;5009088;28;20467;-43
2022/04/02 00:53:38;;;;;;;5.27;4.37;;;3.50;80.70;;;;;;5025735;28;20468;-42
2022/04/02 00:56:05;;;;;;;5.27;3.90;;;3.50;81.40;;;;;;5027091;28;20468;-42
2022/04/02 00:58:33;;;;;;;4.83;4.33;;;3.50;80.50;;;;;;5022642;28;20455;-42
2022/04/02 01:01:00;;;;;;;4.37;3.80;;;3.40;80.40;;;;;;5026205;28;20545;-42
2022/04/02 01:03:27;;;;;;;3.93;2.50;;;3.40;81.20;;;;;;5027270;28;20943;-42
2022/04/02 01:05:54;;;;;;;4.07;3.17;;;3.40;80.90;;;;;;5023984;28;20451;-42
2022/04/02 01:08:21;;;;;;;4.57;3.10;;;3.40;81.50;;;;;;5026871;28;20452;-43
2022/04/02 01:10:47;;;;;;;5.70;3.70;;;3.50;81.50;;;;;;5026350;28;20953;-42
2022/04/02 01:13:16;;;;;;;5.23;4.27;;;3.50;81.90;;;;;;5023477;28;20463;-42
2022/04/02 01:15:43;;;;;;;10.83;5.40;;;3.50;81.50;;;;;;5004487;28;20459;-43
2022/04/02 01:18:10;;;;;;;8.70;5.80;;;3.50;81.50;;;;;;5026070;28;20464;-43
2022/04/02 01:20:37;;;;;;;8.23;5.77;;;3.50;81.10;;;;;;5025630;28;20463;-42
2022/04/02 01:23:04;;;;;;;7.57;6.00;;;3.50;80.70;;;;;;5025551;28;20462;-43
2022/04/02 01:25:34;;;;;;;9.23;5.83;;;3.50;81.10;;;;;;5009485;28;20458;-42
2022/04/02 01:28:01;;;;;;;7.63;5.90;;;3.50;81.30;;;;;;5017461;28;20470;-42
2022/04/02 01:30:29;;;;;;;6.07;5.00;;;3.50;81.00;;;;;;5030918;28;20455;-43
2022/04/02 01:32:56;;;;;;;8.40;7.60;;;3.50;80.70;;;;;;5029019;28;20506;-41
2022/04/02 01:35:24;;;;;;;7.90;5.73;;;3.50;80.40;;;;;;5028815;28;20599;-42
2022/04/02 01:37:51;;;;;;;5.90;5.30;;;3.50;80.70;;;;;;5029310;28;20976;-42
2022/04/02 01:40:19;;;;;;;7.53;5.13;;;3.50;80.80;;;;;;5029190;28;20455;-43
2022/04/02 01:42:46;;;;;;;7.97;5.57;;;3.40;81.40;;;;;;5026165;28;20490;-42
2022/04/02 01:45:14;;;;;;;6.83;5.80;;;3.40;81.60;;;;;;5028635;28;20458;-42
2022/04/02 01:47:41;;;;;;;9.90;6.17;;;3.50;82.00;;;;;;5030112;28;21058;-42
2022/04/02 01:50:10;;;;;;;6.50;5.00;;;3.50;81.80;;;;;;5025449;28;20459;-42
2022/04/02 01:52:38;;;;;;;8.33;5.73;;;3.50;81.40;;;;;;5024536;28;20467;-42
2022/04/02 01:55:05;;;;;;;8.23;5.60;;;3.50;81.60;;;;;;5026989;28;20501;-42
2022/04/02 01:57:32;;;;;;;6.50;4.60;;;3.50;81.40;;;;;;5025858;28;20459;-42
2022/04/02 01:59:58;;;;;;;7.43;6.10;;;3.50;81.30;;;;;;5028371;28;20490;-42
2022/04/02 02:02:26;;;;;;;8.17;6.10;;;3.50;80.90;;;;;;5027326;28;20495;-42
2022/04/02 02:04:53;;;;;;;7.70;6.90;;;3.50;81.20;;;;;;5027007;28;20459;-43
2022/04/02 02:07:20;;;;;;;10.07;7.40;;;3.40;81.70;;;;;;5024812;28;21043;-42
2022/04/02 02:09:46;;;;;;;13.93;7.60;;;3.50;80.90;;;;;;5010034;28;20455;-42
2022/04/02 02:12:15;;;;;;;8.53;7.00;;;3.50;81.10;;;;;;5028679;28;20831;-42
2022/04/02 02:14:42;;;;;;;8.10;7.10;;;3.50;80.40;;;;;;5028840;28;20502;-42
2022/04/02 02:17:09;;;;;;;6.63;5.93;;;3.40;80.50;;;;;;5008398;28;20455;-42
2022/04/02 02:19:36;;;;;;;8.00;6.67;;;3.40;80.80;;;;;;5030522;28;20553;-42
2022/04/02 02:22:03;;;;;;;6.40;5.80;;;3.40;80.40;;;;;;5029385;28;20483;-45
2022/04/02 02:24:29;;;;;;;6.50;5.80;;;3.40;80.20;;;;;;5028262;28;20463;-46
2022/04/02 02:26:56;;;;;;;6.00;4.97;;;3.40;80.40;;;;;;5029573;28;20451;-46
2022/04/02 02:29:23;;;;;;;7.10;5.40;;;3.40;79.50;;;;;;5024278;28;20456;-46
2022/04/02 02:31:49;;;;;;;7.07;4.73;;;3.40;80.10;;;;;;5010538;28;20475;-46
2022/04/02 02:37:02;;;;;;;3.97;3.23;;;3.30;79.10;;;;;;5028232;28;20971;-45
2022/04/02 02:39:28;;;;;;;3.87;3.47;;;3.20;79.50;;;;;;5027076;28;20802;-47
2022/04/02 02:41:55;;;;;;;5.80;4.93;;;3.30;80.60;;;;;;5028699;28;20498;-47
2022/04/02 02:44:22;;;;;;;3.97;3.33;;;3.20;79.50;;;;;;5041244;28;20541;-46
2022/04/02 02:46:49;;;;;;;6.07;2.93;;;3.30;80.30;;;;;;5043218;28;20482;-46
2022/04/02 02:49:15;;;;;;;3.77;3.47;;;3.20;79.50;;;;;;5041496;28;20826;-46
2022/04/02 02:51:42;;;;;;;3.90;3.47;;;3.20;80.10;;;;;;5019107;28;20490;-46
2022/04/02 02:54:09;;;;;;;3.43;3.13;;;3.20;80.60;;;;;;5043659;28;20510;-46
2022/04/02 02:56:35;;;;;;;3.10;2.50;;;3.20;80.10;;;;;;5042988;28;20467;-46
2022/04/02 02:59:02;;;;;;;3.07;2.77;;;3.20;80.30;;;;;;5036138;28;20460;-46
2022/04/02 03:01:29;;;;;;;3.70;2.70;;;3.20;80.10;;;;;;5025087;28;20547;-46
2022/04/02 03:03:56;;;;;;;3.50;2.70;;;3.20;80.70;;;;;;5043945;28;20460;-46
2022/04/02 03:06:23;;;;;;;3.60;2.73;;;3.20;80.40;;;;;;5045214;28;20459;-46
2022/04/02 03:08:49;;;;;;;3.43;2.50;;;3.20;80.10;;;;;;5039600;28;20543;-46
2022/04/02 03:11:16;;;;;;;3.87;2.63;;;3.20;79.60;;;;;;5040147;28;20466;-46
2022/04/02 03:13:43;;;;;;;3.93;3.10;;;3.20;80.50;;;;;;5042871;28;20466;-46
2022/04/02 03:16:10;;;;;;;4.93;3.50;;;3.20;80.40;;;;;;5040722;28;20494;-46
2022/04/02 03:18:37;;;;;;;7.30;4.67;;;3.20;80.60;;;;;;5041324;28;20459;-46
2022/04/02 03:21:04;;;;;;;5.37;4.30;;;3.20;80.30;;;;;;5042321;28;20958;-46
2022/04/02 03:23:32;;;;;;;5.30;3.60;;;3.10;79.80;;;;;;5039855;28;20455;-46
2022/04/02 03:25:59;;;;;;;4.03;3.40;;;3.10;79.40;;;;;;5024565;28;20483;-46
2022/04/02 03:28:25;;;;;;;7.07;4.97;;;3.10;79.80;;;;;;5041191;28;20976;-46
2022/04/02 03:30:52;;;;;;;5.60;4.97;;;3.10;79.70;;;;;;5038271;28;20484;-46
2022/04/02 03:33:20;;;;;;;9.53;5.20;;;3.10;80.20;;;;;;5013009;28;20451;-46
2022/04/02 03:35:47;;;;;;;6.80;5.17;;;3.00;80.60;;;;;;5042619;28;20455;-46
2022/04/02 03:38:14;;;;;;;7.37;6.10;;;3.10;81.10;;;;;;5041802;28;21002;-46
2022/04/02 03:40:41;;;;;;;9.20;7.03;;;3.10;80.90;;;;;;5039968;28;20523;-46
2022/04/02 03:43:08;;;;;;;8.77;6.70;;;3.10;80.70;;;;;;5040982;28;20494;-46
2022/04/02 03:45:35;;;;;;;6.80;6.17;;;3.10;80.70;;;;;;5040372;28;20558;-46
2022/04/02 03:48:02;;;;;;;6.03;5.47;;;3.10;81.10;;;;;;5009208;28;20540;-46
2022/04/02 03:50:28;;;;;;;5.07;4.53;;;3.10;81.30;;;;;;5025729;28;20451;-46
2022/04/02 03:52:56;;;;;;;5.60;4.10;;;3.10;80.60;;;;;;5041477;28;20509;-46
2022/04/02 03:55:22;;;;;;;4.07;3.67;;;3.10;80.60;;;;;;5041719;28;20462;-46
2022/04/02 03:57:50;;;;;;;5.90;4.50;;;3.10;80.00;;;;;;5041447;28;20463;-46
2022/04/02 04:00:19;;;;;;;5.47;3.80;;;3.10;79.90;;;;;;5043191;28;20526;-46
2022/04/02 04:02:46;;;;;;;4.23;3.83;;;3.10;80.50;;;;;;5042780;28;20479;-46
2022/04/02 04:05:13;;;;;;;3.60;3.20;;;3.10;80.70;;;;;;5025069;28;20447;-46
2022/04/02 04:07:41;;;;;;;3.67;3.30;;;3.10;80.50;;;;;;5039659;28;20790;-46
2022/04/02 04:10:08;;;;;;;5.00;4.13;;;3.10;79.60;;;;;;5039457;28;21456;-46
2022/04/02 04:12:35;;;;;;;4.27;3.10;;;3.10;80.60;;;;;;5022404;28;20467;-46
2022/04/02 04:15:03;;;;;;;3.83;3.53;;;3.10;79.50;;;;;;5039455;28;20468;-47
2022/04/02 04:17:30;;;;;;;3.67;2.67;;;3.10;79.90;;;;;;5041407;28;20468;-46
2022/04/02 04:19:57;;;;;;;3.80;3.40;;;3.10;80.20;;;;;;5041520;28;20948;-46
2022/04/02 04:22:23;;;;;;;7.30;2.50;;;3.10;79.60;;;;;;5040134;28;20502;-46
2022/04/02 04:24:50;;;;;;;5.40;3.30;;;3.10;79.70;;;;;;5041261;28;20486;-47
2022/04/02 04:27:17;;;;;;;4.30;3.07;;;3.10;79.70;;;;;;5038760;28;20475;-47
2022/04/02 04:29:44;;;;;;;3.93;3.50;;;3.00;79.40;;;;;;5042006;28;20471;-46
2022/04/02 04:32:10;;;;;;;4.50;3.00;;;3.00;79.70;;;;;;5042464;28;20494;-46
2022/04/02 04:34:37;;;;;;;3.60;3.30;;;3.00;79.70;;;;;;5040044;28;20511;-46
2022/04/02 04:37:04;;;;;;;3.03;2.73;;;3.00;80.00;;;;;;5039484;28;20490;-46
2022/04/02 04:39:31;;;;;;;4.10;3.70;;;3.00;80.10;;;;;;5038909;28;20466;-46
2022/04/02 04:41:58;;;;;;;3.07;2.80;;;3.00;80.50;;;;;;5017490;28;20494;-46
2022/04/02 04:44:25;;;;;;;3.70;3.33;;;3.00;80.00;;;;;;5034960;28;20492;-46
2022/04/02 04:46:52;;;;;;;4.40;3.70;;;3.00;80.00;;;;;;5016326;28;20492;-46
2022/04/02 04:49:19;;;;;;;4.50;4.10;;;3.00;79.90;;;;;;5035699;28;20949;-46
2022/04/02 04:51:46;;;;;;;4.13;3.73;;;3.00;79.70;;;;;;5017543;28;20526;-47
2022/04/02 04:54:13;;;;;;;4.20;3.47;;;3.00;80.90;;;;;;5035382;28;20455;-46
2022/04/02 04:56:40;;;;;;;5.13;4.27;;;3.00;80.70;;;;;;5033917;28;20483;-46
2022/04/02 04:59:09;;;;;;;4.10;3.40;;;3.00;80.50;;;;;;5035573;28;20452;-46
2022/04/02 05:01:36;;;;;;;5.53;3.13;;;2.90;80.70;;;;;;5038558;28;20910;-46
2022/04/02 05:04:05;;;;;;;4.20;3.90;;;2.90;81.10;;;;;;5041807;28;20459;-46
2022/04/02 05:06:36;;;;;;;3.67;3.37;;;2.90;80.90;;;;;;5024997;28;20515;-45
2022/04/02 05:09:03;;;;;;;4.70;3.50;;;2.90;80.70;;;;;;5041017;28;20461;-46
2022/04/02 05:11:30;;;;;;;3.73;3.10;;;2.90;81.30;;;;;;5038631;28;20474;-46
2022/04/02 05:13:57;;;;;;;4.43;3.30;;;2.90;81.20;;;;;;5007032;28;20467;-46
2022/04/02 05:16:26;;;;;;;3.90;3.50;;;2.90;81.00;;;;;;5038510;28;20459;-47
2022/04/02 05:18:53;;;;;;;3.50;3.20;;;2.90;81.40;;;;;;5037546;28;20460;-46
2022/04/02 05:21:20;;;;;;;4.10;3.20;;;2.90;81.40;;;;;;5036846;28;20473;-46
2022/04/02 05:23:47;;;;;;;4.03;3.70;;;2.90;80.90;;;;;;5037504;28;20496;-47
2022/04/02 05:26:13;;;;;;;3.53;3.20;;;2.80;81.10;;;;;;5035371;28;20455;-46
2022/04/02 05:28:40;;;;;;;4.23;3.80;;;2.90;81.60;;;;;;5039457;28;20486;-46
2022/04/02 05:31:08;;;;;;;3.90;3.60;;;2.90;81.80;;;;;;5038359;28;20475;-47
2022/04/02 05:33:35;;;;;;;4.30;3.90;;;2.90;81.40;;;;;;5038250;28;20479;-47
2022/04/02 05:36:08;;;;;;;4.90;3.83;;;2.90;81.40;;;;;;5039511;28;20519;-46
2022/04/02 05:38:35;;;;;;;4.60;3.80;;;2.90;81.10;;;;;;5020638;28;20467;-47
2022/04/02 05:41:02;;;;;;;5.07;3.97;;;2.90;80.80;;;;;;5037080;28;20460;-46
2022/04/02 05:43:29;;;;;;;4.37;4.00;;;2.90;80.90;;;;;;5019282;28;21011;-46
2022/04/02 05:45:56;;;;;;;5.10;4.60;;;2.80;81.00;;;;;;5039177;28;20474;-46
2022/04/02 05:48:24;;;;;;;9.03;5.47;;;2.80;81.10;;;;;;5039863;28;20517;-46
2022/04/02 05:50:51;;;;;;;8.60;6.57;;;2.80;81.60;;;;;;5039185;28;21331;-46
2022/04/02 05:53:18;;;;;;;9.00;6.80;;;2.80;81.70;;;;;;5037521;28;21054;-46
2022/04/02 05:55:47;;;;;;;7.50;5.50;;;2.80;81.70;;;;;;5021556;28;20845;-45
2022/04/02 05:58:15;;;;;;;11.33;7.07;;;2.80;81.60;;;;;;5036286;28;20487;-46
2022/04/02 06:00:42;;;;;;;6.83;6.20;;;2.80;81.80;;;;;;5038393;28;20550;-47
2022/04/02 06:03:09;;;;;;;8.77;6.70;;;2.80;81.90;;;;;;5023726;28;20487;-46
2022/04/02 06:05:36;;;;;;;8.73;6.60;;;2.80;81.70;;;;;;5039529;28;20951;-46
2022/04/02 06:08:03;;;;;;;6.83;6.10;;;2.80;81.20;;;;;;5040014;28;20866;-46
2022/04/02 06:10:30;;;;;;;7.40;5.30;;;2.80;81.20;;;;;;5035786;28;21064;-46
2022/04/02 06:12:57;;;;;;;6.33;5.73;;;2.80;81.00;;;;;;5036063;28;20886;-46
2022/04/02 06:15:24;;;;;;;6.27;5.67;;;2.80;81.30;;;;;;5036644;28;20466;-46
2022/04/02 06:17:51;;;;;;;5.90;3.90;;;2.80;81.70;;;;;;5038467;28;20498;-46
2022/04/02 06:20:19;;;;;;;5.17;4.43;;;2.80;81.60;;;;;;5038135;28;20460;-47
2022/04/02 06:22:45;;;;;;;3.53;3.20;;;2.80;81.60;;;;;;5021254;28;20479;-46
2022/04/02 06:25:12;;;;;;;4.93;3.90;;;2.90;81.50;;;;;;5038444;28;20895;-46
2022/04/02 06:27:43;;;;;;;4.37;3.80;;;2.80;81.40;;;;;;5039049;28;21071;-46
2022/04/02 06:30:15;;;;;;;3.47;3.10;;;2.90;81.10;;;;;;5015327;28;20466;-46
2022/04/02 06:32:41;;;;;;;3.93;3.57;;;2.90;81.70;;;;;;5036083;28;20491;-46
2022/04/02 06:35:09;;;;;;;5.40;4.23;;;2.80;81.10;;;;;;5035964;28;21215;-46
2022/04/02 06:37:38;;;;;;;4.07;3.47;;;2.80;81.70;;;;;;5020387;28;20486;-45
2022/04/02 06:40:07;;;;;;;5.10;4.40;;;2.90;81.40;;;;;;5019669;28;20515;-46
2022/04/02 06:42:33;;;;;;;4.63;3.70;;;2.90;81.60;;;;;;5037057;28;20576;-45
2022/04/02 06:45:01;;;;;;;5.27;3.10;;;2.90;81.30;;;;;;5036881;28;20463;-46
2022/04/02 06:47:30;;;;;;;5.40;3.17;;;2.80;81.10;;;;;;5036262;28;20476;-46
2022/04/02 06:49:57;;;;;;;4.47;3.53;;;2.80;81.40;;;;;;5017780;28;20488;-47
2022/04/02 06:52:25;;;;;;;3.27;2.97;;;2.80;81.90;;;;;;5020474;28;20972;-46
2022/04/02 06:54:52;;;;;;;5.23;3.40;;;2.90;82.40;;;;;;5037493;28;20469;-46
2022/04/02 06:57:22;;;;;;;3.60;3.30;;;2.90;81.40;;;;;;5038085;28;20467;-45
2022/04/02 06:59:49;;;;;;;6.23;4.60;;;3.00;81.50;;;;;;5038651;28;20499;-46
2022/04/02 07:02:16;;;;;;;4.20;3.50;;;3.00;81.50;;;;;;5035977;28;20474;-46
2022/04/02 07:04:43;;;;;;;3.97;3.50;;;3.00;81.00;;;;;;5036012;28;20461;-46
2022/04/02 07:07:10;;;;;;;3.97;3.30;;;3.00;81.10;;;;;;5037464;28;20464;-46
2022/04/02 07:09:37;;;;;;;3.70;3.37;;;3.00;81.40;;;;;;5039283;28;22595;-46
2022/04/02 07:12:04;;;;;;;3.13;2.83;;;3.00;81.40;;;;;;5037998;28;20511;-46
2022/04/02 07:14:32;;;;;;;4.00;3.60;;;3.10;81.00;;;;;;5036768;28;20511;-48
2022/04/02 07:16:59;;;;;;;4.30;3.90;;;3.10;81.30;;;;;;5020107;28;20625;-46
2022/04/02 07:19:30;;;;;;;5.63;3.70;;;3.10;80.90;;;;;;5036753;28;20526;-47
2022/04/02 07:21:57;;;;;;;4.97;3.63;;;3.10;80.80;;;;;;5020914;28;20515;-46
2022/04/02 07:24:24;;;;;;;4.30;3.53;;;3.10;80.30;;;;;;5039529;28;20486;-46
2022/04/02 07:26:54;;;;;;;5.80;4.27;;;3.10;80.60;;;;;;5036941;28;20466;-46
2022/04/02 07:29:20;;;;;;;3.83;3.43;;;3.10;80.30;;;;;;5043036;28;20450;-47
2022/04/02 07:31:47;;;;;;;5.00;4.40;;;3.10;81.00;;;;;;5040945;28;20482;-47
2022/04/02 07:34:20;;;;;;;5.13;4.20;;;3.20;80.50;;;;;;5042115;28;20489;-46
2022/04/02 07:37:07;;;;;;;4.70;4.07;;;3.20;79.70;;;;;;5043190;28;20566;-47
2022/04/02 07:39:59;;;;;;;7.00;4.23;;;3.10;80.30;;;;;;5021005;28;21055;-47
2022/04/02 07:43:04;;;;;;;4.50;4.07;;;3.20;80.30;;;;;;5041685;28;20471;-46
2022/04/02 07:45:45;;;;;;;4.40;3.83;;;3.30;79.80;;;;;;5018388;28;20451;-46
2022/04/02 07:48:15;;;;;;;12.93;4.00;;;3.30;79.30;;;;;;5040220;28;20875;-46
2022/04/02 07:50:44;;;;;;;8.97;5.17;;;3.30;79.60;;;;;;5038766;28;20458;-47
2022/04/02 07:53:20;;;;;;;5.80;4.80;;;3.30;79.20;;;;;;5041602;28;20452;-47
2022/04/02 07:55:56;;;;;;;5.20;4.50;;;3.40;79.40;;;;;;5020784;28;20531;-45
2022/04/02 07:58:29;;;;;;;4.23;3.83;;;3.40;79.70;;;;;;5041650;28;20451;-46
2022/04/02 08:00:58;;;;;;;4.23;3.83;;;3.40;78.70;;;;;;5037746;28;20952;-46
2022/04/02 08:03:26;;;;;;;4.80;3.63;;;3.40;78.30;;;;;;5039698;28;20495;-46
2022/04/02 08:05:55;;;;;;;4.43;3.33;;;3.50;78.60;;;;;;5040366;28;20486;-46
2022/04/02 08:08:25;;;;;;;3.73;3.43;;;3.50;77.80;;;;;;5040728;28;20511;-47
2022/04/02 08:10:53;;;;;;;4.97;3.37;;;3.40;77.40;;;;;;5036787;28;20478;-47
2022/04/02 08:13:21;;;;;;;5.43;4.00;;;3.40;78.50;;;;;;5042377;28;20519;-46
2022/04/02 08:15:54;;;;;;;4.80;3.60;;;3.50;77.80;;;;;;5038341;28;21027;-47
2022/04/02 08:18:26;;;;;;;7.20;4.63;;;3.50;78.40;;;;;;5040971;28;20475;-47
2022/04/02 08:20:54;;;;;;;6.47;4.47;;;3.50;78.50;;;;;;5039406;28;20463;-47
2022/04/02 08:23:21;;;;;;;4.27;3.73;;;3.50;78.60;;;;;;5037483;28;20487;-47
2022/04/02 08:26:01;;;;;;;6.30;3.57;;;3.60;78.90;;;;;;5025541;28;20459;-46
2022/04/02 08:28:51;;;;;;;4.67;4.23;;;3.70;78.40;;;;;;5039856;28;20490;-47
2022/04/02 08:31:37;;;;;;;4.57;3.50;;;3.70;78.40;;;;;;5039717;28;20475;-47
2022/04/02 08:34:28;;;;;;;5.73;3.20;;;3.80;78.40;;;;;;5039751;28;20951;-46
2022/04/02 08:37:06;;;;;;;4.40;3.97;;;3.80;77.60;;;;;;5038491;28;20467;-46
2022/04/02 08:39:41;;;;;;;4.27;3.87;;;3.80;77.10;;;;;;5041409;28;20466;-46
2022/04/02 08:42:14;;;;;;;5.53;3.90;;;3.80;76.90;;;;;;5039740;28;20481;-46
2022/04/02 08:45:03;;;;;;;3.83;3.53;;;3.80;77.70;;;;;;5041843;28;20493;-46
2022/04/02 08:47:49;;;;;;;3.87;3.57;;;3.90;77.40;;;;;;5042063;28;20486;-46
2022/04/02 08:50:17;;;;;;;5.57;3.63;;;3.90;78.20;;;;;;5040500;28;20487;-47
2022/04/02 08:52:54;;;;;;;5.70;3.53;;;3.90;78.20;;;;;;5024571;28;21546;-46
2022/04/02 08:55:22;;;;;;;6.10;3.60;;;4.00;77.50;;;;;;5041038;28;20463;-47
2022/04/02 08:57:55;;;;;;;5.13;3.40;;;4.10;77.00;;;;;;5041618;28;20455;-46
2022/04/02 09:00:27;;;;;;;7.23;4.00;;;4.10;77.40;;;;;;5040948;28;20864;-47
2022/04/02 09:02:53;;;;;;;4.97;3.90;;;4.20;77.30;;;;;;5040875;28;20499;-47
2022/04/02 09:05:22;;;;;;;9.03;4.27;;;4.20;75.70;;;;;;5045473;28;20462;-47
2022/04/02 09:08:10;;;;;;;4.90;3.43;;;4.20;75.50;;;;;;5042096;28;20488;-46
2022/04/02 09:11:15;;;;;;;5.83;3.83;;;4.30;75.40;;;;;;5039517;28;20458;-47
2022/04/02 09:14:14;;;;;;;7.30;3.93;;;4.30;76.20;;;;;;5011791;28;20944;-46
2022/04/02 09:17:01;;;;;;;6.20;3.50;;;4.40;74.70;;;;;;5040028;28;20488;-46
2022/04/02 09:20:07;;;;;;;3.97;3.30;;;4.40;73.40;;;;;;5037643;28;20539;-45
2022/04/02 09:23:06;;;;;;;4.00;3.13;;;4.50;73.30;;;;;;5040890;28;20527;-47
2022/04/02 09:25:41;;;;;;;12.13;3.70;;;4.60;73.30;;;;;;5043569;28;20499;-47
2022/04/02 09:28:22;;;;;;;4.10;3.23;;;4.60;72.90;;;;;;5041009;28;20455;-47
2022/04/02 09:31:04;;;;;;;5.00;3.60;;;4.60;70.70;;;;;;5040124;28;21022;-46
2022/04/02 09:33:55;;;;;;;6.47;3.90;;;4.60;71.10;;;;;;5041783;28;20471;-46
2022/04/02 09:36:59;;;;;;;3.80;3.50;;;4.70;71.10;;;;;;5028389;28;20994;-46
2022/04/02 09:40:05;;;;;;;4.30;3.90;;;4.70;70.20;;;;;;5042113;28;20803;-47
2022/04/02 09:42:43;;;;;;;4.13;3.73;;;4.80;70.10;;;;;;5040000;28;20534;-46
2022/04/02 09:45:14;;;;;;;4.70;3.33;;;4.80;68.60;;;;;;5038392;28;20493;-48
2022/04/02 09:47:58;;;;;;;5.53;3.60;;;4.80;69.50;;;;;;5044352;28;21092;-47
2022/04/02 09:50:26;;;;;;;4.37;3.73;;;4.80;69.90;;;;;;5044684;28;20527;-47
2022/04/02 09:53:19;;;;;;;3.23;3.03;;;4.90;70.20;;;;;;5027584;28;20468;-46
2022/04/02 09:56:10;;;;;;;5.27;4.50;;;4.90;69.90;;;;;;5035729;28;20831;-46
2022/04/02 09:59:08;;;;;;;4.30;3.90;;;5.00;69.80;;;;;;5046305;28;20487;-46
2022/04/02 10:01:39;;;;;;;6.23;3.60;;;5.10;68.70;;;;;;5039373;28;20474;-45
2022/04/02 10:04:18;;;;;;;4.77;4.37;;;5.10;68.80;;;;;;5028912;28;20491;-46
2022/04/02 10:06:48;;;;;;;6.40;3.80;;;5.20;68.80;;;;;;5039756;28;20484;-46
2022/04/02 10:09:19;;;;;;;5.60;3.87;;;5.20;69.20;;;;;;5040550;28;20451;-46
2022/04/02 10:11:55;;;;;;;4.43;3.93;;;5.30;68.30;;;;;;5039060;28;20498;-46
2022/04/02 10:14:25;;;;;;;4.80;4.10;;;5.40;68.30;;;;;;5042388;28;20488;-46
2022/04/02 10:16:55;;;;;;;4.90;3.93;;;5.50;68.00;;;;;;5043399;28;20483;-47
2022/04/02 10:19:33;;;;;;;4.03;3.63;;;5.60;66.40;;;;;;5046734;28;20460;-46
2022/04/02 10:22:11;;;;;;;4.47;3.90;;;5.60;65.50;;;;;;5041162;28;20463;-45
2022/04/02 10:24:46;;;;;;;4.63;4.23;;;5.70;66.20;;;;;;5028360;28;20546;-46
2022/04/02 10:27:32;;;;;;;5.03;4.07;;;5.70;66.30;;;;;;5040140;28;20452;-46
2022/04/02 10:30:06;;;;;;;5.00;3.60;;;5.70;65.30;;;;;;5042328;28;20546;-46
2022/04/02 10:32:57;;;;;;;6.77;4.13;;;5.70;65.80;;;;;;5042964;28;20540;-46
2022/04/02 10:35:27;;;;;;;4.90;3.90;;;5.70;65.20;;;;;;5026172;28;20482;-46
2022/04/02 10:38:06;;;;;;;9.13;5.00;;;5.80;65.20;;;;;;5042538;28;20456;-46
2022/04/02 10:40:50;;;;;;;5.93;4.10;;;5.80;64.90;;;;;;5042620;28;20467;-46
2022/04/02 10:43:27;;;;;;;5.47;4.97;;;5.70;64.90;;;;;;5044077;28;20509;-46
2022/04/02 10:45:56;;;;;;;5.77;4.37;;;5.70;65.10;;;;;;5041564;28;20470;-46
2022/04/02 10:49:00;;;;;;;8.03;4.23;;;5.70;65.00;;;;;;5044506;28;20460;-46
2022/04/02 10:51:29;;;;;;;5.17;4.67;;;5.60;65.40;;;;;;5044802;28;20460;-46
2022/04/02 10:54:01;;;;;;;5.07;4.40;;;5.70;66.30;;;;;;5042964;28;20468;-46
2022/04/02 10:56:45;;;;;;;5.33;4.80;;;5.70;64.60;;;;;;5042816;28;20542;-46
2022/04/02 10:59:15;;;;;;;4.23;3.83;;;5.70;64.90;;;;;;5038999;28;20460;-46
2022/04/02 11:01:44;;;;;;;6.40;5.53;;;5.80;64.20;;;;;;5044977;28;20445;-46
2022/04/02 11:04:27;;;;;;;4.27;3.70;;;5.80;64.60;;;;;;5043701;28;20471;-46
2022/04/02 11:06:56;;;;;;;7.63;4.57;;;5.90;64.80;;;;;;5034680;28;20467;-43
2022/04/02 11:09:41;;;;;;;4.70;4.30;;;6.00;64.00;;;;;;5007398;28;20547;-43
2022/04/02 11:12:17;;;;;;;6.07;4.67;;;6.10;63.70;;;;;;5010643;28;20456;-42
2022/04/02 11:14:47;;;;;;;5.70;4.43;;;6.10;63.50;;;;;;5007880;28;20980;-42
2022/04/02 11:17:30;;;;;;;6.33;4.43;;;6.10;63.70;;;;;;5015847;28;20449;-42
2022/04/02 11:20:09;;;;;;;5.93;5.30;;;6.20;62.80;;;;;;5007637;28;20550;-42
2022/04/02 11:22:59;;;;;;;4.87;4.40;;;6.20;62.70;;;;;;5025185;28;20462;-42
2022/04/02 11:25:29;;;;;;;5.50;4.30;;;6.20;61.90;;;;;;5024841;28;20494;-42
2022/04/02 11:28:16;;;;;;;4.90;4.40;;;6.20;61.80;;;;;;5027256;28;20824;-43
2022/04/02 11:30:44;;;;;;;4.90;4.50;;;6.30;61.50;;;;;;5025489;28;20459;-43
2022/04/02 11:33:17;;;;;;;5.40;4.73;;;6.30;60.80;;;;;;5028265;28;20476;-42
2022/04/02 11:35:51;;;;;;;7.37;4.40;;;6.30;61.20;;;;;;5010934;28;20476;-42
2022/04/02 11:38:21;;;;;;;5.90;4.17;;;6.20;61.80;;;;;;5028110;28;20454;-42
2022/04/02 11:41:11;;;;;;;5.30;4.80;;;6.30;61.20;;;;;;5027859;28;20453;-42
2022/04/02 11:43:40;;;;;;;6.80;4.80;;;6.30;60.10;;;;;;5003882;28;20502;-42
2022/04/02 11:46:09;;;;;;;5.20;4.60;;;6.20;61.80;;;;;;5029718;28;20444;-42
2022/04/02 11:48:51;;;;;;;5.77;5.27;;;6.20;60.60;;;;;;5008152;28;20968;-42
2022/04/02 11:51:33;;;;;;;5.90;4.20;;;6.20;60.00;;;;;;5011375;28;20469;-42
2022/04/02 11:54:07;;;;;;;6.40;4.27;;;6.10;59.50;;;;;;5005132;28;20459;-42
2022/04/02 11:56:43;;;;;;;6.37;4.03;;;6.00;60.80;;;;;;5027998;28;20459;-42
2022/04/02 11:59:14;;;;;;;4.67;4.27;;;6.00;61.00;;;;;;5024559;28;20955;-42
2022/04/02 12:01:50;;;;;;;6.93;4.87;;;6.00;61.20;;;;;;5008027;28;21248;-42
2022/04/02 12:04:22;;;;;;;5.43;4.83;;;6.00;60.70;;;;;;5024144;28;20602;-42
2022/04/02 12:06:50;;;;;;;4.50;4.10;;;6.00;59.60;;;;;;5020181;28;20460;-42
2022/04/02 12:09:25;;;;;;;5.83;4.70;;;5.90;59.80;;;;;;5025452;28;20823;-42
2022/04/02 12:11:59;;;;;;;5.70;4.73;;;6.00;60.80;;;;;;5026664;28;20530;-43
2022/04/02 12:14:38;;;;;;;4.93;4.50;;;6.00;61.20;;;;;;5007543;28;20465;-42
2022/04/02 12:17:12;;;;;;;4.60;4.20;;;6.10;61.30;;;;;;5039453;28;20523;-46
2022/04/02 12:19:42;;;;;;;7.57;4.87;;;6.10;60.40;;;;;;5040837;28;20490;-46
2022/04/02 12:22:27;;;;;;;5.40;4.90;;;6.10;60.70;;;;;;5040812;28;20478;-46
2022/04/02 12:24:57;;;;;;;4.60;4.20;;;6.10;59.70;;;;;;5040417;28;20498;-46
2022/04/02 12:27:30;;;;;;;4.17;3.77;;;6.20;60.90;;;;;;5037155;28;21015;-45
2022/04/02 12:30:00;;;;;;;4.37;3.97;;;6.20;61.00;;;;;;5042855;28;20469;-46
2022/04/02 12:32:38;;;;;;;5.20;4.00;;;6.30;59.30;;;;;;5043470;28;20532;-46
2022/04/02 12:35:21;;;;;;;3.93;3.50;;;6.30;58.90;;;;;;5025976;28;20509;-46
2022/04/02 12:37:56;;;;;;;4.60;4.20;;;6.30;59.60;;;;;;5041683;28;20537;-46
2022/04/02 12:40:29;;;;;;;4.60;4.20;;;6.30;59.10;;;;;;5041277;28;20455;-46
2022/04/02 12:43:07;;;;;;;4.80;3.70;;;6.30;57.30;;;;;;5025066;28;20462;-46
2022/04/02 12:45:36;;;;;;;3.83;3.47;;;6.30;58.30;;;;;;5041459;28;20568;-46
2022/04/02 12:48:14;;;;;;;4.30;3.90;;;6.20;58.70;;;;;;5040704;28;20467;-46
2022/04/02 12:50:58;;;;;;;7.37;3.67;;;6.20;59.00;;;;;;5040160;28;20456;-46
2022/04/02 12:53:42;;;;;;;6.77;3.53;;;6.20;59.00;;;;;;5034455;28;20462;-46
2022/04/02 12:56:26;;;;;;;3.63;3.33;;;6.10;59.00;;;;;;5041306;28;20484;-46
2022/04/02 12:58:54;;;;;;;3.47;3.17;;;6.10;58.80;;;;;;5040206;28;20458;-46
2022/04/02 13:01:25;;;;;;;4.20;3.80;;;6.10;59.50;;;;;;5041991;28;20443;-46
2022/04/02 13:03:59;;;;;;;3.83;3.50;;;6.10;59.20;;;;;;5042052;28;20525;-46
2022/04/02 13:06:28;;;;;;;3.40;3.10;;;6.10;59.60;;;;;;5040589;28;20810;-47
2022/04/02 13:09:12;;;;;;;6.03;3.40;;;6.10;59.10;;;;;;5041201;28;20470;-46
2022/04/02 13:11:53;;;;;;;3.80;3.40;;;6.10;58.80;;;;;;5041412;28;20523;-46
2022/04/02 13:14:28;;;;;;;3.60;3.30;;;6.10;59.90;;;;;;5037558;28;20471;-46
2022/04/02 13:17:07;;;;;;;3.97;3.60;;;6.20;57.90;;;;;;5023067;28;20896;-46
2022/04/02 13:22:46;;;;;;;3.30;3.00;;;6.20;58.80;;;;;;5031208;28;20483;-46
2022/04/02 13:25:17;;;;;;;3.30;3.00;;;6.20;58.60;;;;;;5044070;28;20629;-46
2022/04/02 13:28:28;;;;;;;3.80;3.20;;;6.20;59.00;;;;;;5044116;28;20459;-45